createdAt,value
2017-06-24T00:02:01.105Z,23.10
2017-06-24T00:04:27.133Z,26.87
2017-06-24T00:06:53.157Z,26.57
2017-06-24T00:09:19.920Z,33.10
2017-06-24T00:11:45.981Z,28.37
2017-06-24T00:14:12.780Z,28.40
2017-06-24T00:16:38.843Z,30.27
2017-06-24T00:19:04.883Z,28.17
2017-06-24T00:21:30.921Z,32.00
2017-06-24T00:23:56.958Z,29.53
2017-06-24T00:26:22.982Z,20.97
2017-06-24T00:28:49.033Z,28.27
2017-06-24T00:31:15.060Z,33.87
2017-06-24T00:33:41.084Z,31.47
2017-06-24T00:36:07.841Z,29.33
2017-06-24T00:38:33.956Z,33.10
2017-06-24T00:41:00.020Z,26.73
2017-06-24T00:43:26.893Z,31.23
2017-06-24T00:45:52.930Z,25.80
2017-06-24T00:48:18.985Z,32.10
2017-06-24T00:50:45.785Z,33.30
2017-06-24T00:53:12.114Z,32.87
2017-06-24T00:55:38.930Z,29.70
2017-06-24T00:58:04.999Z,38.40
2017-06-24T01:00:31.073Z,35.60
2017-06-24T01:02:57.124Z,28.83
2017-06-24T01:05:23.189Z,30.90
2017-06-24T01:07:49.257Z,28.33
2017-06-24T01:10:15.325Z,28.70
2017-06-24T01:12:41.361Z,28.87
2017-06-24T01:15:07.401Z,32.20
2017-06-24T01:17:33.448Z,32.90
2017-06-24T01:19:59.479Z,26.63
2017-06-24T01:22:25.536Z,31.60
2017-06-24T01:24:52.347Z,30.33
2017-06-24T01:27:18.437Z,26.90
2017-06-24T01:29:44.477Z,33.03
2017-06-24T01:32:10.530Z,39.77
2017-06-24T01:34:36.572Z,37.33
2017-06-24T01:37:02.648Z,36.33
2017-06-24T01:39:28.713Z,36.13
2017-06-24T01:41:54.744Z,18.57
2017-06-24T01:44:20.814Z,36.23
2017-06-24T01:46:46.872Z,33.83
2017-06-24T01:49:12.903Z,32.13
2017-06-24T01:51:38.953Z,36.77
2017-06-24T01:54:04.988Z,37.20
2017-06-24T01:56:31.749Z,30.77
2017-06-24T01:58:57.820Z,27.97
2017-06-24T02:01:24.620Z,31.37
2017-06-24T02:03:50.685Z,35.83
2017-06-24T02:06:16.725Z,30.43
2017-06-24T02:08:42.778Z,27.83
2017-06-24T02:11:08.825Z,27.13
2017-06-24T02:13:34.869Z,27.33
2017-06-24T02:16:01.661Z,30.87
2017-06-24T02:18:27.716Z,36.80
2017-06-24T02:20:54.494Z,29.90
2017-06-24T02:23:20.530Z,31.10
2017-06-24T02:25:46.590Z,39.47
2017-06-24T02:28:12.640Z,35.43
2017-06-24T02:30:38.664Z,34.23
2017-06-24T02:33:04.709Z,32.13
2017-06-24T02:35:30.733Z,31.30
2017-06-24T02:37:56.774Z,31.50
2017-06-24T02:40:22.830Z,33.33
2017-06-24T02:42:48.897Z,29.67
2017-06-24T02:45:14.962Z,38.23
2017-06-24T02:47:41.013Z,39.13
2017-06-24T02:50:07.077Z,39.30
2017-06-24T02:52:33.141Z,40.87
2017-06-24T02:54:59.185Z,39.30
2017-06-24T02:57:25.245Z,34.00
2017-06-24T02:59:51.270Z,45.20
2017-06-24T03:02:18.066Z,29.07
2017-06-24T03:04:44.145Z,49.20
2017-06-24T03:07:10.201Z,51.20
2017-06-24T03:09:36.256Z,57.47
2017-06-24T03:12:29.912Z,46.17
2017-06-24T03:14:55.954Z,45.87
2017-06-24T03:17:21.985Z,45.73
2017-06-24T03:19:48.054Z,54.30
2017-06-24T03:22:14.097Z,48.63
2017-06-24T03:24:40.148Z,49.23
2017-06-24T03:27:06.934Z,50.47
2017-06-24T03:29:32.988Z,44.27
2017-06-24T03:31:59.889Z,53.37
2017-06-24T03:34:25.940Z,49.07
2017-06-24T03:36:51.985Z,49.73
2017-06-24T03:39:18.005Z,44.60
2017-06-24T03:41:44.121Z,53.87
2017-06-24T03:44:10.161Z,50.10
2017-06-24T03:46:36.222Z,59.83
2017-06-24T03:49:02.261Z,49.17
2017-06-24T03:51:28.281Z,63.07
2017-06-24T03:53:54.372Z,50.37
2017-06-24T03:56:20.413Z,59.33
2017-06-24T03:58:46.445Z,52.30
2017-06-24T04:01:12.468Z,70.50
2017-06-24T04:03:38.522Z,58.03
2017-06-24T04:06:04.569Z,61.27
2017-06-24T04:08:30.617Z,60.23
2017-06-24T04:10:56.652Z,37.20
2017-06-24T04:13:23.445Z,53.00
2017-06-24T04:15:49.476Z,61.07
2017-06-24T04:18:16.261Z,56.37
2017-06-24T04:20:42.321Z,61.57
2017-06-24T04:23:09.125Z,62.70
2017-06-24T04:25:35.163Z,68.50
2017-06-24T04:28:01.937Z,71.13
2017-06-24T04:30:28.009Z,49.40
2017-06-24T04:32:54.070Z,64.33
2017-06-24T04:35:20.198Z,64.43
2017-06-24T04:37:46.252Z,61.20
2017-06-24T04:40:12.305Z,70.60
2017-06-24T04:42:38.371Z,54.03
2017-06-24T04:45:04.430Z,47.20
2017-06-24T04:47:30.462Z,60.23
2017-06-24T04:49:56.481Z,58.30
2017-06-24T04:52:22.538Z,69.63
2017-06-24T04:54:48.589Z,63.43
2017-06-24T04:57:15.362Z,58.10
2017-06-24T04:59:41.405Z,67.17
2017-06-24T05:02:08.197Z,55.60
2017-06-24T05:04:34.229Z,58.50
2017-06-24T05:07:00.256Z,62.60
2017-06-24T05:09:27.024Z,66.57
2017-06-24T05:11:53.061Z,64.70
2017-06-24T05:14:19.101Z,64.10
2017-06-24T05:16:45.868Z,60.00
2017-06-24T05:19:11.937Z,50.30
2017-06-24T05:21:38.041Z,57.23
2017-06-24T05:24:05.211Z,52.20
2017-06-24T05:26:31.237Z,59.00
2017-06-24T05:28:57.289Z,49.47
2017-06-24T05:31:23.314Z,38.87
2017-06-24T05:33:50.097Z,53.47
2017-06-24T05:36:16.129Z,51.00
2017-06-24T05:38:42.181Z,44.30
2017-06-24T05:41:08.210Z,47.50
2017-06-24T05:43:34.274Z,41.13
2017-06-24T05:46:01.053Z,44.70
2017-06-24T05:48:27.109Z,50.63
2017-06-24T05:50:53.185Z,48.80
2017-06-24T05:53:19.238Z,47.30
2017-06-24T05:55:45.272Z,53.30
2017-06-24T05:58:11.306Z,44.93
2017-06-24T06:00:37.371Z,50.43
2017-06-24T06:03:03.416Z,36.50
2017-06-24T06:05:29.461Z,47.17
2017-06-24T06:07:55.485Z,53.67
2017-06-24T06:10:21.511Z,52.70
2017-06-24T06:12:47.540Z,45.77
2017-06-24T06:15:13.564Z,53.77
2017-06-24T06:17:39.632Z,57.93
2017-06-24T06:20:05.685Z,50.13
2017-06-24T06:22:38.881Z,54.83
2017-06-24T06:25:04.913Z,48.80
2017-06-24T06:27:31.698Z,59.60
2017-06-24T06:29:57.730Z,39.50
2017-06-24T06:32:24.533Z,62.23
2017-06-24T06:34:50.569Z,40.40
2017-06-24T06:37:19.718Z,49.20
2017-06-24T06:39:46.537Z,47.80
2017-06-24T06:42:12.561Z,40.07
2017-06-24T06:44:38.614Z,50.77
2017-06-24T06:47:04.691Z,49.53
2017-06-24T06:49:30.746Z,50.63
2017-06-24T06:51:56.865Z,37.10
2017-06-24T06:54:22.926Z,36.73
2017-06-24T06:56:48.964Z,49.87
2017-06-24T06:59:15.034Z,43.13
2017-06-24T07:01:41.082Z,43.90
2017-06-24T07:04:07.117Z,37.03
2017-06-24T07:06:33.196Z,43.50
2017-06-24T07:08:59.992Z,49.37
2017-06-24T07:11:26.142Z,34.70
2017-06-24T07:13:52.234Z,27.03
2017-06-24T07:16:18.305Z,44.20
2017-06-24T07:18:44.589Z,35.30
2017-06-24T07:21:10.684Z,37.20
2017-06-24T07:23:36.725Z,43.63
2017-06-24T07:26:02.773Z,39.57
2017-06-24T07:28:28.815Z,39.40
2017-06-24T07:30:54.855Z,33.30
2017-06-24T07:33:20.907Z,40.17
2017-06-24T07:35:47.064Z,38.20
2017-06-24T07:38:13.175Z,36.47
2017-06-24T07:40:39.204Z,37.63
2017-06-24T07:43:05.271Z,34.07
2017-06-24T07:45:31.328Z,33.53
2017-06-24T07:47:57.389Z,33.87
2017-06-24T07:50:23.416Z,42.53
2017-06-24T07:52:49.465Z,27.57
2017-06-24T07:55:15.521Z,37.50
2017-06-24T07:57:48.712Z,36.97
2017-06-24T08:00:14.799Z,35.70
2017-06-24T08:02:40.831Z,33.87
2017-06-24T08:05:06.869Z,21.40
2017-06-24T08:07:32.945Z,40.30
2017-06-24T08:09:58.989Z,34.33
2017-06-24T08:12:25.064Z,30.07
2017-06-24T08:14:51.101Z,22.10
2017-06-24T08:17:17.181Z,25.63
2017-06-24T08:19:43.269Z,39.23
2017-06-24T08:22:09.334Z,36.43
2017-06-24T08:24:35.388Z,35.40
2017-06-24T08:27:01.421Z,43.20
2017-06-24T08:29:27.504Z,44.70
2017-06-24T08:31:54.301Z,49.37
2017-06-24T08:34:21.101Z,43.97
2017-06-24T08:36:47.129Z,46.63
2017-06-24T08:39:13.185Z,43.40
2017-06-24T08:41:39.257Z,37.80
2017-06-24T08:44:05.309Z,32.60
2017-06-24T08:46:31.338Z,41.50
2017-06-24T08:48:57.373Z,41.87
2017-06-24T08:51:23.421Z,34.40
2017-06-24T08:53:49.489Z,40.93
2017-06-24T08:56:15.545Z,45.60
2017-06-24T08:58:41.703Z,42.47
2017-06-24T09:01:07.757Z,27.77
2017-06-24T09:03:33.821Z,37.20
2017-06-24T09:05:59.885Z,43.60
2017-06-24T09:08:25.941Z,37.80
2017-06-24T09:10:51.993Z,40.40
2017-06-24T09:13:18.787Z,36.17
2017-06-24T09:15:44.836Z,41.60
2017-06-24T09:18:10.877Z,36.60
2017-06-24T09:20:36.941Z,34.87
2017-06-24T09:23:03.717Z,33.53
2017-06-24T09:25:29.781Z,26.07
2017-06-24T09:27:55.853Z,34.07
2017-06-24T09:30:21.910Z,31.90
2017-06-24T09:32:47.969Z,38.90
2017-06-24T09:35:14.014Z,36.03
2017-06-24T09:37:40.041Z,33.77
2017-06-24T09:40:06.066Z,39.07
2017-06-24T09:42:32.109Z,37.93
2017-06-24T09:44:58.173Z,45.03
2017-06-24T09:47:24.220Z,47.37
2017-06-24T09:49:50.285Z,37.57
2017-06-24T09:52:16.321Z,36.73
2017-06-24T09:54:42.373Z,35.07
2017-06-24T09:57:08.472Z,40.57
2017-06-24T09:59:34.528Z,39.60
2017-06-24T10:02:01.521Z,40.87
2017-06-24T10:04:28.313Z,40.03
2017-06-24T10:06:54.383Z,45.93
2017-06-24T10:09:20.448Z,47.80
2017-06-24T10:11:46.509Z,42.23
2017-06-24T10:14:12.540Z,52.37
2017-06-24T10:16:38.584Z,33.70
2017-06-24T10:19:04.632Z,43.77
2017-06-24T10:21:30.690Z,44.17
2017-06-24T10:23:56.717Z,39.53
2017-06-24T10:26:22.785Z,44.47
2017-06-24T10:28:48.938Z,45.93
2017-06-24T10:31:15.732Z,42.17
2017-06-24T10:33:41.769Z,48.13
2017-06-24T10:36:07.807Z,47.20
2017-06-24T10:38:33.852Z,43.17
2017-06-24T10:40:59.912Z,44.90
2017-06-24T10:43:25.968Z,47.77
2017-06-24T10:45:52.001Z,43.87
2017-06-24T10:48:18.025Z,42.50
2017-06-24T10:50:44.045Z,46.53
2017-06-24T10:53:10.851Z,50.90
2017-06-24T10:55:37.629Z,45.87
2017-06-24T10:58:03.669Z,40.47
2017-06-24T11:00:29.714Z,44.67
2017-06-24T11:02:56.487Z,47.07
2017-06-24T11:05:22.545Z,46.60
2017-06-24T11:07:48.602Z,37.03
2017-06-24T11:10:14.633Z,45.00
2017-06-24T11:12:40.677Z,43.20
2017-06-24T11:15:07.457Z,41.20
2017-06-24T11:17:33.473Z,40.83
2017-06-24T11:19:59.525Z,45.30
2017-06-24T11:22:26.353Z,43.23
2017-06-24T11:24:53.357Z,50.07
2017-06-24T11:27:19.409Z,42.80
2017-06-24T11:29:45.471Z,45.80
2017-06-24T11:32:12.281Z,40.73
2017-06-24T11:34:38.336Z,40.00
2017-06-24T11:37:04.394Z,41.80
2017-06-24T11:39:30.448Z,52.23
2017-06-24T11:41:56.482Z,37.70
2017-06-24T11:44:22.513Z,43.17
2017-06-24T11:46:48.545Z,36.00
2017-06-24T11:49:14.565Z,44.30
2017-06-24T11:51:40.596Z,40.97
2017-06-24T11:54:07.349Z,42.30
2017-06-24T11:56:33.369Z,36.10
2017-06-24T11:58:59.397Z,38.17
2017-06-24T12:01:25.442Z,42.30
2017-06-24T12:03:52.208Z,40.33
2017-06-24T12:06:18.265Z,50.03
2017-06-24T12:08:44.329Z,44.83
2017-06-24T12:11:10.369Z,45.80
2017-06-24T12:13:36.409Z,42.80
2017-06-24T12:16:03.205Z,46.97
2017-06-24T12:18:29.248Z,42.33
2017-06-24T12:20:55.294Z,44.27
2017-06-24T12:23:22.873Z,54.60
2017-06-24T12:25:49.068Z,49.83
2017-06-24T12:28:15.999Z,39.87
2017-06-24T12:30:42.049Z,48.13
2017-06-24T12:33:08.866Z,42.73
2017-06-24T12:35:35.663Z,49.40
2017-06-24T12:38:01.701Z,43.53
2017-06-24T12:40:28.501Z,43.17
2017-06-24T12:42:54.562Z,43.80
2017-06-24T12:45:20.638Z,42.57
2017-06-24T12:47:47.441Z,39.70
2017-06-24T12:50:13.478Z,40.77
2017-06-24T12:52:40.289Z,40.53
2017-06-24T12:55:06.390Z,36.73
2017-06-24T12:57:32.479Z,41.90
2017-06-24T12:59:58.568Z,37.87
2017-06-24T13:02:24.658Z,38.73
2017-06-24T13:04:51.447Z,33.97
2017-06-24T13:07:17.513Z,29.40
2017-06-24T13:09:43.562Z,29.30
2017-06-24T13:12:09.594Z,31.30
2017-06-24T13:14:35.617Z,35.27
2017-06-24T13:17:02.397Z,37.63
2017-06-24T13:19:28.430Z,38.40
2017-06-24T13:21:54.482Z,37.90
2017-06-24T13:24:20.534Z,30.63
2017-06-24T13:26:46.580Z,39.67
2017-06-24T13:29:13.353Z,40.63
2017-06-24T13:31:39.405Z,34.87
2017-06-24T13:34:05.454Z,34.93
2017-06-24T13:36:31.503Z,27.67
2017-06-24T13:38:57.662Z,39.93
2017-06-24T13:41:23.734Z,36.17
2017-06-24T13:43:49.833Z,39.80
2017-06-24T13:46:15.954Z,43.73
2017-06-24T13:48:41.993Z,42.10
2017-06-24T13:51:08.024Z,45.97
2017-06-24T13:53:34.072Z,34.00
2017-06-24T13:56:00.142Z,30.07
2017-06-24T13:58:26.192Z,37.67
2017-06-24T14:00:52.233Z,40.77
2017-06-24T14:03:19.013Z,38.07
2017-06-24T14:05:45.075Z,31.63
2017-06-24T14:08:11.121Z,37.77
2017-06-24T14:10:37.166Z,30.73
2017-06-24T14:13:03.209Z,27.60
2017-06-24T14:15:29.236Z,15.73
2017-06-24T14:17:55.297Z,12.60
2017-06-24T14:20:21.421Z,13.80
2017-06-24T14:22:47.461Z,11.10
2017-06-24T14:25:13.525Z,11.20
2017-06-24T14:27:40.334Z,9.67
2017-06-24T14:30:06.357Z,13.57
2017-06-24T14:32:32.527Z,6.10
2017-06-24T14:34:58.565Z,9.43
2017-06-24T14:37:24.597Z,6.40
2017-06-24T14:39:50.740Z,9.00
2017-06-24T14:42:16.756Z,9.00
2017-06-24T14:44:42.804Z,13.60
2017-06-24T14:47:08.867Z,14.07
2017-06-24T14:49:34.936Z,15.43
2017-06-24T14:52:01.735Z,8.53
2017-06-24T14:54:27.782Z,6.47
2017-06-24T14:56:53.816Z,26.20
2017-06-24T14:59:19.853Z,11.40
2017-06-24T15:01:45.907Z,13.80
2017-06-24T15:04:11.976Z,13.33
2017-06-24T15:06:38.080Z,8.90
2017-06-24T15:09:04.225Z,11.93
2017-06-24T15:11:30.287Z,6.73
2017-06-24T15:13:56.345Z,5.80
2017-06-24T15:16:23.161Z,12.33
2017-06-24T15:18:49.197Z,15.03
2017-06-24T15:21:15.241Z,10.30
2017-06-24T15:23:41.273Z,8.60
2017-06-24T15:26:07.303Z,15.03
2017-06-24T15:28:33.444Z,10.03
2017-06-24T15:30:59.580Z,5.90
2017-06-24T15:33:25.686Z,10.27
2017-06-24T15:35:51.734Z,9.13
2017-06-24T15:38:17.809Z,5.30
2017-06-24T15:40:43.853Z,14.57
2017-06-24T15:43:10.015Z,7.47
2017-06-24T15:45:36.044Z,9.60
2017-06-24T15:48:02.073Z,10.83
2017-06-24T15:50:28.141Z,7.70
2017-06-24T15:52:54.174Z,13.57
2017-06-24T15:55:20.243Z,13.13
2017-06-24T15:57:46.320Z,10.50
2017-06-24T16:00:12.381Z,8.83
2017-06-24T16:02:38.415Z,6.37
2017-06-24T16:05:04.475Z,10.83
2017-06-24T16:07:30.493Z,10.20
2017-06-24T16:09:56.573Z,10.20
2017-06-24T16:12:23.373Z,7.80
2017-06-24T16:14:49.426Z,6.60
2017-06-24T16:17:15.464Z,13.33
2017-06-24T16:19:41.486Z,7.60
2017-06-24T16:22:07.521Z,6.43
2017-06-24T16:24:33.562Z,5.50
2017-06-24T16:27:00.366Z,11.20
2017-06-24T16:29:26.420Z,12.00
2017-06-24T16:31:52.457Z,6.90
2017-06-24T16:34:18.488Z,13.33
2017-06-24T16:36:44.585Z,11.10
2017-06-24T16:39:10.605Z,11.53
2017-06-24T16:41:36.657Z,8.63
2017-06-24T16:44:02.696Z,7.27
2017-06-24T16:46:28.720Z,11.10
2017-06-24T16:48:54.757Z,14.03
2017-06-24T16:51:21.557Z,8.43
2017-06-24T16:53:47.587Z,5.60
2017-06-24T16:56:13.644Z,7.63
2017-06-24T16:58:39.689Z,16.53
2017-06-24T17:01:05.733Z,9.73
2017-06-24T17:03:32.520Z,5.77
2017-06-24T17:05:58.566Z,9.60
2017-06-24T17:08:25.334Z,11.50
2017-06-24T17:10:51.376Z,9.00
2017-06-24T17:13:18.165Z,13.73
2017-06-24T17:15:44.220Z,4.87
2017-06-24T17:18:10.248Z,10.60
2017-06-24T17:20:36.273Z,6.50
2017-06-24T17:23:02.290Z,15.67
2017-06-24T17:25:28.329Z,11.00
2017-06-24T17:27:54.344Z,8.30
2017-06-24T17:30:20.388Z,16.03
2017-06-24T17:32:46.417Z,10.63
2017-06-24T17:35:12.454Z,6.53
2017-06-24T17:37:39.165Z,7.40
2017-06-24T17:40:05.230Z,9.37
2017-06-24T17:42:31.287Z,14.80
2017-06-24T17:45:28.529Z,8.60
2017-06-24T17:47:54.561Z,8.67
2017-06-24T17:50:21.393Z,11.33
2017-06-24T17:52:47.439Z,13.83
2017-06-24T17:55:13.476Z,9.30
2017-06-24T17:57:39.504Z,20.40
2017-06-24T18:00:05.545Z,10.87
2017-06-24T18:02:32.321Z,5.60
2017-06-24T18:04:58.344Z,11.83
2017-06-24T18:07:24.373Z,7.00
2017-06-24T18:09:50.410Z,8.03
2017-06-24T18:12:16.432Z,6.80
2017-06-24T18:14:42.480Z,17.37
2017-06-24T18:17:08.529Z,11.57
2017-06-24T18:19:35.292Z,5.90
2017-06-24T18:22:01.324Z,5.97
2017-06-24T18:24:27.386Z,7.73
2017-06-24T18:26:53.417Z,8.43
2017-06-24T18:29:19.441Z,5.40
2017-06-24T18:31:45.481Z,8.80
2017-06-24T18:34:11.556Z,7.10
2017-06-24T18:36:37.612Z,9.20
2017-06-24T18:39:04.409Z,6.80
2017-06-24T18:41:37.337Z,5.47
2017-06-24T18:44:03.384Z,8.13
2017-06-24T18:46:29.412Z,5.63
2017-06-24T18:48:56.204Z,8.40
2017-06-24T18:51:22.270Z,6.10
2017-06-24T18:53:55.259Z,5.27
2017-06-24T18:56:21.313Z,13.73
2017-06-24T18:58:47.351Z,8.50
2017-06-24T19:01:14.121Z,7.20
2017-06-24T19:03:40.194Z,10.00
2017-06-24T19:06:06.239Z,9.17
2017-06-24T19:08:32.301Z,8.00
2017-06-24T19:10:58.405Z,6.57
2017-06-24T19:13:25.205Z,12.47
2017-06-24T19:15:51.229Z,11.73
2017-06-24T19:18:17.279Z,10.63
2017-06-24T19:20:43.333Z,9.37
2017-06-24T19:23:09.392Z,14.87
2017-06-24T19:25:35.456Z,13.03
2017-06-24T19:28:01.501Z,7.33
2017-06-24T19:30:28.280Z,8.53
2017-06-24T19:32:54.369Z,6.33
2017-06-24T19:35:20.400Z,7.03
2017-06-24T19:37:46.437Z,6.87
2017-06-24T19:40:13.208Z,8.60
2017-06-24T19:42:39.240Z,7.03
2017-06-24T19:45:05.301Z,6.20
2017-06-24T19:47:31.329Z,5.80
2017-06-24T19:49:57.409Z,14.00
2017-06-24T19:52:24.181Z,4.00
2017-06-24T19:54:50.221Z,13.63
2017-06-24T19:57:16.257Z,6.33
2017-06-24T19:59:43.092Z,15.93
2017-06-24T20:02:09.132Z,11.10
2017-06-24T20:04:35.224Z,7.00
2017-06-24T20:07:01.273Z,9.00
2017-06-24T20:09:27.350Z,4.30
2017-06-24T20:11:53.397Z,5.10
2017-06-24T20:14:19.428Z,6.13
2017-06-24T20:16:46.249Z,12.93
2017-06-24T20:19:13.024Z,7.10
2017-06-24T20:21:39.057Z,5.43
2017-06-24T20:24:05.267Z,7.30
2017-06-24T20:26:31.304Z,12.10
2017-06-24T20:28:57.361Z,6.73
2017-06-24T20:31:23.426Z,9.93
2017-06-24T20:33:50.217Z,5.50
2017-06-24T20:36:16.244Z,11.03
2017-06-24T20:38:42.278Z,11.23
2017-06-24T20:41:09.049Z,9.93
2017-06-24T20:43:35.116Z,8.57
2017-06-24T20:46:01.171Z,5.50
2017-06-24T20:48:27.219Z,4.37
2017-06-24T20:50:53.248Z,8.13
2017-06-24T20:53:19.372Z,5.90
2017-06-24T20:55:45.444Z,12.40
2017-06-24T20:58:12.216Z,9.27
2017-06-24T21:00:38.257Z,14.37
2017-06-24T21:03:04.563Z,5.53
2017-06-24T21:05:30.608Z,13.77
2017-06-24T21:07:56.740Z,12.97
2017-06-24T21:10:22.771Z,9.63
2017-06-24T21:12:48.820Z,12.20
2017-06-24T21:15:14.874Z,5.27
2017-06-24T21:17:40.929Z,7.67
2017-06-24T21:20:13.793Z,8.90
2017-06-24T21:22:39.820Z,17.23
2017-06-24T21:25:05.893Z,15.10
2017-06-24T21:27:31.921Z,9.07
2017-06-24T21:29:57.961Z,8.40
2017-06-24T21:32:24.724Z,6.73
2017-06-24T21:34:50.768Z,7.90
2017-06-24T21:37:16.808Z,9.00
2017-06-24T21:39:43.587Z,10.53
2017-06-24T21:42:09.642Z,10.80
2017-06-24T21:44:35.681Z,18.10
2017-06-24T21:47:01.705Z,13.53
2017-06-24T21:49:27.753Z,12.10
2017-06-24T21:51:53.801Z,7.43
2017-06-24T21:54:19.841Z,11.93
2017-06-24T21:56:45.876Z,11.37
2017-06-24T21:59:12.649Z,12.70
2017-06-24T22:01:38.705Z,9.77
2017-06-24T22:04:04.729Z,6.07
2017-06-24T22:06:31.508Z,8.37
2017-06-24T22:08:57.524Z,12.03
2017-06-24T22:11:23.543Z,15.10
2017-06-24T22:13:49.561Z,12.03
2017-06-24T22:16:15.588Z,10.07
2017-06-24T22:18:41.629Z,7.17
2017-06-24T22:21:07.677Z,10.40
2017-06-24T22:23:33.749Z,15.67
2017-06-24T22:25:59.769Z,8.40
2017-06-24T22:28:25.821Z,11.77
2017-06-24T22:30:51.833Z,19.00
2017-06-24T22:33:18.613Z,9.87
2017-06-24T22:35:44.652Z,12.97
2017-06-24T22:38:10.698Z,9.10
2017-06-24T22:40:37.457Z,11.70
2017-06-24T22:43:03.508Z,11.47
2017-06-24T22:45:29.567Z,7.70
2017-06-24T22:47:55.640Z,8.00
2017-06-24T22:50:22.428Z,12.10
2017-06-24T22:52:48.489Z,8.73
2017-06-24T22:55:15.293Z,12.53
2017-06-24T22:57:41.357Z,20.93
2017-06-24T23:00:07.408Z,14.83
2017-06-24T23:02:33.457Z,12.03
2017-06-24T23:04:59.484Z,18.30
2017-06-24T23:07:25.524Z,15.03
2017-06-24T23:09:51.560Z,16.70
2017-06-24T23:12:18.341Z,14.80
2017-06-24T23:14:44.380Z,12.90
2017-06-24T23:17:11.197Z,15.97
2017-06-24T23:19:38.030Z,11.10
2017-06-24T23:22:04.073Z,94.87
2017-06-24T23:24:30.112Z,13.90
2017-06-24T23:26:56.148Z,21.00
2017-06-24T23:29:22.216Z,18.00
2017-06-24T23:31:48.272Z,11.80
2017-06-24T23:34:14.312Z,14.83
2017-06-24T23:36:40.360Z,10.37
2017-06-24T23:39:06.421Z,13.03
2017-06-24T23:41:33.226Z,14.00
2017-06-24T23:43:59.278Z,25.53
2017-06-24T23:46:25.298Z,12.53
2017-06-24T23:48:51.329Z,14.20
2017-06-24T23:51:17.357Z,16.27
2017-06-24T23:53:43.405Z,22.73
2017-06-24T23:56:09.462Z,17.00
2017-06-24T23:58:35.510Z,26.70
